Time;durP1;ratioP1;P1;durP2;ratioP2;P2;SDS_P1;SDS_P2;PMS_P1;PMS_P2;Temp;Humidity;BMP_temperature;BMP_pressure;BME280_temperature;BME280_humidity;BME280_pressure;Samples;Min_cycle;Max_cycle;Signal;HPM_P1;HPM_P2
2022/03/22 00:00:55;;;;;;;;;;;23.20;48.50;;;;;;5097306;28;996;-47
2022/03/22 00:03:24;;;;;;;;;;;23.10;48.50;;;;;;5097557;28;807;-47
2022/03/22 00:05:52;;;;;;;;;;;23.10;48.60;;;;;;5097873;28;1013;-47
2022/03/22 00:08:21;;;;;;;;;;;23.10;48.50;;;;;;5097585;28;2413;-47
2022/03/22 00:10:48;;;;;;;;;;;23.10;48.60;;;;;;5098275;28;1902;-44
2022/03/22 00:13:15;;;;;;;;;;;23.10;48.70;;;;;;5096939;28;1113;-50
2022/03/22 00:15:43;;;;;;;;;;;23.30;48.60;;;;;;5096713;28;905;-53
2022/03/22 00:18:11;;;;;;;;;;;23.20;48.60;;;;;;5101471;28;1486;-50
2022/03/22 00:20:38;;;;;;;;;;;23.10;48.90;;;;;;5100865;28;987;-53
2022/03/22 00:23:05;;;;;;;;;;;23.00;49.00;;;;;;5101136;28;1925;-49
2022/03/22 00:25:35;;;;;;;;;;;23.00;49.00;;;;;;5101480;28;1434;-50
2022/03/22 00:28:05;;;;;;;;;;;23.00;49.20;;;;;;5101361;28;1084;-49
2022/03/22 00:30:33;;;;;;;;;;;23.00;49.20;;;;;;5100791;28;1996;-50
2022/03/22 00:33:02;;;;;;;;;;;22.90;49.10;;;;;;5100583;28;2009;-50
2022/03/22 00:35:30;;;;;;;;;;;22.90;49.30;;;;;;5101018;28;855;-49
2022/03/22 00:37:59;;;;;;;;;;;22.90;49.20;;;;;;5100888;28;963;-50
2022/03/22 00:40:27;;;;;;;;;;;22.90;49.30;;;;;;5100502;28;1721;-46
2022/03/22 00:42:56;;;;;;;;;;;22.90;49.20;;;;;;5100565;28;1870;-47
2022/03/22 00:45:25;;;;;;;;;;;22.90;49.10;;;;;;5100463;28;1019;-52
2022/03/22 00:47:53;;;;;;;;;;;22.90;49.20;;;;;;5098731;28;1203;-50
2022/03/22 00:50:21;;;;;;;;;;;22.90;49.20;;;;;;5098039;28;1902;-49
2022/03/22 00:52:48;;;;;;;;;;;22.90;49.20;;;;;;5099463;28;1033;-49
2022/03/22 00:55:15;;;;;;;;;;;22.90;49.10;;;;;;5098833;28;1018;-50
2022/03/22 00:57:43;;;;;;;;;;;22.90;49.20;;;;;;5099901;28;948;-51
2022/03/22 01:00:12;;;;;;;;;;;22.90;49.20;;;;;;5099202;28;979;-50
2022/03/22 01:02:39;;;;;;;;;;;22.90;49.20;;;;;;5099182;28;904;-49
2022/03/22 01:05:08;;;;;;;;;;;22.90;49.30;;;;;;5099694;28;1027;-50
2022/03/22 01:07:35;;;;;;;;;;;22.90;49.10;;;;;;5099115;28;932;-52
2022/03/22 01:10:01;;;;;;;;;;;22.90;49.30;;;;;;5098664;28;1906;-51
2022/03/22 01:12:29;;;;;;;;;;;22.90;49.40;;;;;;5099223;28;964;-50
2022/03/22 01:14:56;;;;;;;;;;;22.80;49.20;;;;;;5099132;28;924;-50
2022/03/22 01:17:24;;;;;;;;;;;22.90;49.20;;;;;;5098771;28;996;-50
2022/03/22 01:19:51;;;;;;;;;;;22.90;49.20;;;;;;5098562;28;1062;-51
2022/03/22 01:22:18;;;;;;;;;;;22.90;49.30;;;;;;5099598;28;963;-52
2022/03/22 01:24:45;;;;;;;;;;;22.80;49.20;;;;;;5098846;28;939;-53
2022/03/22 01:27:11;;;;;;;;;;;22.80;49.30;;;;;;5098797;28;1000;-49
2022/03/22 01:29:38;;;;;;;;;;;22.80;49.40;;;;;;5098747;28;1988;-50
2022/03/22 01:32:05;;;;;;;;;;;22.80;49.20;;;;;;5098941;28;1012;-51
2022/03/22 01:34:34;;;;;;;;;;;22.80;49.20;;;;;;5098655;28;1019;-49
2022/03/22 01:37:01;;;;;;;;;;;22.80;49.30;;;;;;5098726;28;991;-49
2022/03/22 01:39:27;;;;;;;;;;;22.80;49.20;;;;;;5098219;28;1000;-51
2022/03/22 01:41:54;;;;;;;;;;;22.80;49.20;;;;;;5098923;28;1278;-50
2022/03/22 01:44:21;;;;;;;;;;;22.80;49.10;;;;;;5097945;28;1017;-50
2022/03/22 01:46:49;;;;;;;;;;;22.80;49.20;;;;;;5097957;28;984;-49
2022/03/22 01:49:16;;;;;;;;;;;22.80;49.20;;;;;;5097569;28;1909;-48
2022/03/22 01:51:45;;;;;;;;;;;22.80;49.10;;;;;;5098183;28;993;-50
2022/03/22 01:54:13;;;;;;;;;;;22.80;49.10;;;;;;5098996;28;1031;-50
2022/03/22 01:56:40;;;;;;;;;;;22.80;49.10;;;;;;5098846;28;931;-49
2022/03/22 01:59:06;;;;;;;;;;;22.80;49.20;;;;;;5097865;28;1004;-49
2022/03/22 02:07:05;;;;;;;;;;;22.80;49.10;;;;;;5097863;28;999;-49
2022/03/22 02:09:31;;;;;;;;;;;22.80;49.10;;;;;;5097999;28;1971;-49
2022/03/22 02:11:58;;;;;;;;;;;22.80;49.20;;;;;;5098151;28;1007;-50
2022/03/22 02:14:25;;;;;;;;;;;22.80;49.20;;;;;;5097750;28;861;-49
2022/03/22 02:16:52;;;;;;;;;;;22.80;49.20;;;;;;5098120;28;1410;-49
2022/03/22 02:19:18;;;;;;;;;;;22.80;49.20;;;;;;5097854;28;956;-49
2022/03/22 02:21:45;;;;;;;;;;;22.80;49.30;;;;;;5097810;28;1003;-50
2022/03/22 02:24:13;;;;;;;;;;;22.80;49.10;;;;;;5097316;28;1031;-49
2022/03/22 02:26:40;;;;;;;;;;;22.80;49.20;;;;;;5097708;28;1006;-49
2022/03/22 02:29:07;;;;;;;;;;;22.80;49.20;;;;;;5097098;28;968;-49
2022/03/22 02:31:33;;;;;;;;;;;22.80;49.20;;;;;;5097678;28;1993;-52
2022/03/22 02:34:00;;;;;;;;;;;22.80;49.30;;;;;;5097814;28;1809;-49
2022/03/22 02:36:27;;;;;;;;;;;22.80;49.20;;;;;;5098278;28;1030;-50
2022/03/22 02:38:54;;;;;;;;;;;22.80;49.20;;;;;;5097240;28;1011;-49
2022/03/22 02:41:24;;;;;;;;;;;22.80;49.10;;;;;;5097617;28;967;-49
2022/03/22 02:43:51;;;;;;;;;;;22.80;49.10;;;;;;5096833;28;999;-51
2022/03/22 02:46:18;;;;;;;;;;;22.80;49.00;;;;;;5096052;28;1191;-50
2022/03/22 02:48:45;;;;;;;;;;;22.80;49.10;;;;;;5096131;28;967;-49
2022/03/22 02:51:12;;;;;;;;;;;22.80;49.00;;;;;;5096654;28;1901;-49
2022/03/22 02:53:39;;;;;;;;;;;22.80;49.20;;;;;;5097148;28;995;-50
2022/03/22 02:56:06;;;;;;;;;;;22.80;49.10;;;;;;5097068;28;984;-49
2022/03/22 02:58:34;;;;;;;;;;;22.80;49.10;;;;;;5096857;28;1024;-50
2022/03/22 03:01:02;;;;;;;;;;;22.80;49.00;;;;;;5097019;28;1043;-50
2022/03/22 03:06:32;;;;;;;;;;;22.80;49.00;;;;;;5097813;28;986;-49
2022/03/22 03:08:59;;;;;;;;;;;22.80;49.00;;;;;;5096999;28;948;-50
2022/03/22 03:11:25;;;;;;;;;;;22.80;49.10;;;;;;5096474;28;1902;-49
2022/03/22 03:16:39;;;;;;;;;;;22.70;49.20;;;;;;5096299;28;1010;-49
2022/03/22 03:19:06;;;;;;;;;;;22.70;49.00;;;;;;5097062;28;980;-49
2022/03/22 03:21:33;;;;;;;;;;;22.70;49.10;;;;;;5096856;28;990;-50
2022/03/22 03:24:00;;;;;;;;;;;22.70;49.10;;;;;;5096621;28;1003;-51
2022/03/22 03:26:27;;;;;;;;;;;22.70;49.10;;;;;;5097044;28;1067;-51
2022/03/22 03:28:55;;;;;;;;;;;22.70;49.10;;;;;;5096959;28;956;-49
2022/03/22 03:31:21;;;;;;;;;;;22.70;49.10;;;;;;5096188;28;1988;-51
2022/03/22 03:33:49;;;;;;;;;;;22.70;49.20;;;;;;5097055;28;1124;-48
2022/03/22 03:36:16;;;;;;;;;;;22.70;49.10;;;;;;5096378;28;947;-49
2022/03/22 03:38:42;;;;;;;;;;;22.70;49.10;;;;;;5096693;28;977;-50
2022/03/22 03:43:54;;;;;;;;;;;22.70;49.20;;;;;;5096040;28;703;-49
2022/03/22 03:49:06;;;;;;;;;;;22.70;49.10;;;;;;5095142;28;665;-49
2022/03/22 03:51:33;;;;;;;;;;;22.70;49.20;;;;;;5098945;28;1906;-50
2022/03/22 03:54:00;;;;;;;;;;;22.70;49.20;;;;;;5101615;28;964;-49
2022/03/22 03:56:27;;;;;;;;;;;22.70;49.20;;;;;;5100609;28;1030;-49
2022/03/22 03:58:56;;;;;;;;;;;22.70;49.20;;;;;;5100589;28;980;-49
2022/03/22 04:01:23;;;;;;;;;;;22.70;49.00;;;;;;5100702;28;978;-50
2022/03/22 04:03:50;;;;;;;;;;;22.60;49.20;;;;;;5100978;28;1038;-52
2022/03/22 04:06:17;;;;;;;;;;;22.60;49.10;;;;;;5100235;28;982;-49
2022/03/22 04:08:43;;;;;;;;;;;22.60;49.20;;;;;;5099869;28;1041;-53
2022/03/22 04:11:10;;;;;;;;;;;22.60;49.20;;;;;;5100781;28;1951;-49
2022/03/22 04:13:37;;;;;;;;;;;22.60;49.30;;;;;;5100551;28;1012;-48
2022/03/22 04:16:06;;;;;;;;;;;22.60;49.30;;;;;;5100709;28;1017;-48
2022/03/22 04:18:34;;;;;;;;;;;22.60;49.40;;;;;;5099904;28;1046;-49
2022/03/22 04:21:02;;;;;;;;;;;22.60;49.20;;;;;;5100160;28;1012;-52
2022/03/22 04:23:28;;;;;;;;;;;22.60;49.30;;;;;;5099958;28;1038;-50
2022/03/22 04:25:55;;;;;;;;;;;22.60;49.30;;;;;;5099714;28;1007;-49
2022/03/22 04:33:51;;;;;;;;;;;22.50;49.40;;;;;;5099470;28;695;-49
2022/03/22 04:36:18;;;;;;;;;;;22.60;49.40;;;;;;5099448;28;1004;-51
2022/03/22 04:38:45;;;;;;;;;;;22.50;49.30;;;;;;5099940;28;952;-51
2022/03/22 04:41:13;;;;;;;;;;;22.60;49.30;;;;;;5099724;28;936;-50
2022/03/22 04:43:40;;;;;;;;;;;22.60;49.30;;;;;;5099492;28;967;-49
2022/03/22 04:46:08;;;;;;;;;;;22.60;49.40;;;;;;5098977;28;1000;-50
2022/03/22 04:48:36;;;;;;;;;;;22.50;49.20;;;;;;5098667;28;952;-50
2022/03/22 04:56:47;;;;;;;;;;;22.60;49.30;;;;;;5099161;28;888;-48
2022/03/22 04:59:14;;;;;;;;;;;22.50;49.40;;;;;;5098824;28;1038;-49
2022/03/22 05:01:43;;;;;;;;;;;22.50;49.40;;;;;;5099053;28;1013;-49
2022/03/22 05:04:11;;;;;;;;;;;22.50;49.50;;;;;;5099226;28;939;-50
2022/03/22 05:06:38;;;;;;;;;;;22.40;49.40;;;;;;5099066;28;1031;-51
2022/03/22 05:09:04;;;;;;;;;;;22.50;49.60;;;;;;5098212;28;992;-50
2022/03/22 05:11:31;;;;;;;;;;;22.40;49.40;;;;;;5099010;28;1902;-50
2022/03/22 05:13:58;;;;;;;;;;;22.50;49.40;;;;;;5097746;28;1023;-50
2022/03/22 05:16:25;;;;;;;;;;;22.40;49.40;;;;;;5098252;28;944;-49
2022/03/22 05:18:53;;;;;;;;;;;22.40;49.50;;;;;;5098514;28;944;-49
2022/03/22 05:21:20;;;;;;;;;;;22.50;49.60;;;;;;5098921;28;995;-50
2022/03/22 05:23:47;;;;;;;;;;;22.40;49.50;;;;;;5098979;28;1014;-48
2022/03/22 05:26:14;;;;;;;;;;;22.40;49.50;;;;;;5097508;28;1856;-51
2022/03/22 05:28:41;;;;;;;;;;;22.40;49.40;;;;;;5098354;28;928;-50
2022/03/22 05:31:09;;;;;;;;;;;22.50;49.40;;;;;;5098258;28;1977;-50
2022/03/22 05:33:37;;;;;;;;;;;22.50;49.30;;;;;;5097072;28;880;-50
2022/03/22 05:36:05;;;;;;;;;;;22.50;49.30;;;;;;5097550;28;968;-49
2022/03/22 05:38:32;;;;;;;;;;;22.50;49.30;;;;;;5098142;28;960;-49
2022/03/22 05:40:59;;;;;;;;;;;22.40;49.40;;;;;;5097782;28;876;-49
2022/03/22 05:43:26;;;;;;;;;;;22.40;49.40;;;;;;5097495;28;989;-49
2022/03/22 05:45:52;;;;;;;;;;;22.40;49.50;;;;;;5096744;28;991;-49
2022/03/22 05:48:20;;;;;;;;;;;22.40;49.30;;;;;;5094656;28;849;-49
2022/03/22 05:50:47;;;;;;;;;;;22.40;49.30;;;;;;5096451;28;1906;-52
2022/03/22 05:53:15;;;;;;;;;;;22.40;49.30;;;;;;5097144;28;875;-50
2022/03/22 05:55:42;;;;;;;;;;;22.50;49.40;;;;;;5096131;28;984;-49
2022/03/22 05:58:09;;;;;;;;;;;22.40;49.30;;;;;;5096772;28;1015;-53
2022/03/22 06:00:36;;;;;;;;;;;22.50;49.40;;;;;;5097163;28;972;-50
2022/03/22 06:03:03;;;;;;;;;;;22.40;49.30;;;;;;5095812;28;844;-51
2022/03/22 06:05:30;;;;;;;;;;;22.40;49.40;;;;;;5095902;28;1010;-49
2022/03/22 06:07:57;;;;;;;;;;;22.40;49.30;;;;;;5094853;28;984;-49
2022/03/22 06:10:26;;;;;;;;;;;22.50;49.30;;;;;;5095033;28;1034;-51
2022/03/22 06:12:54;;;;;;;;;;;22.40;49.40;;;;;;5095054;28;1917;-50
2022/03/22 06:15:21;;;;;;;;;;;22.40;49.40;;;;;;5092880;28;1015;-49
2022/03/22 06:17:49;;;;;;;;;;;22.40;49.40;;;;;;5094631;28;1146;-48
2022/03/22 06:20:16;;;;;;;;;;;22.40;49.30;;;;;;5094370;28;972;-49
2022/03/22 06:22:45;;;;;;;;;;;22.40;49.30;;;;;;5094670;28;984;-49
2022/03/22 06:25:12;;;;;;;;;;;22.50;49.30;;;;;;5093905;28;984;-52
2022/03/22 06:27:40;;;;;;;;;;;22.50;49.40;;;;;;5094310;28;994;-53
2022/03/22 06:30:08;;;;;;;;;;;22.50;49.20;;;;;;5093950;28;1018;-50
2022/03/22 06:32:40;;;;;;;;;;;22.50;49.20;;;;;;5094724;28;1906;-49
2022/03/22 06:35:07;;;;;;;;;;;22.50;49.20;;;;;;5094590;28;928;-51
2022/03/22 06:37:34;;;;;;;;;;;22.50;49.10;;;;;;5094237;28;1016;-45
2022/03/22 06:40:01;;;;;;;;;;;22.60;49.20;;;;;;5094369;28;994;-45
2022/03/22 06:42:27;;;;;;;;;;;22.50;49.20;;;;;;5095593;28;986;-45
2022/03/22 06:44:56;;;;;;;;;;;22.40;49.40;;;;;;5093940;28;994;-45
2022/03/22 06:47:23;;;;;;;;;;;22.50;49.40;;;;;;5088847;28;1949;-45
2022/03/22 06:49:50;;;;;;;;;;;22.50;49.20;;;;;;5095661;28;1027;-45
2022/03/22 06:52:17;;;;;;;;;;;22.50;49.20;;;;;;5096210;28;1980;-46
2022/03/22 06:54:43;;;;;;;;;;;22.50;49.20;;;;;;5095667;28;960;-45
2022/03/22 06:57:10;;;;;;;;;;;22.50;49.20;;;;;;5094793;28;944;-46
2022/03/22 06:59:37;;;;;;;;;;;22.50;49.20;;;;;;5094406;28;1004;-46
2022/03/22 07:02:06;;;;;;;;;;;22.60;49.10;;;;;;5094470;28;892;-45
2022/03/22 07:04:32;;;;;;;;;;;22.50;49.20;;;;;;5094656;28;1634;-51
2022/03/22 07:06:59;;;;;;;;;;;22.50;49.40;;;;;;5093611;28;1080;-49
2022/03/22 07:09:26;;;;;;;;;;;22.50;49.30;;;;;;5093559;28;1012;-47
2022/03/22 07:11:55;;;;;;;;;;;22.50;49.40;;;;;;5093737;28;1909;-45
2022/03/22 07:14:23;;;;;;;;;;;22.60;49.30;;;;;;5094192;28;932;-47
2022/03/22 07:16:50;;;;;;;;;;;22.60;49.50;;;;;;5093993;28;999;-41
2022/03/22 07:19:19;;;;;;;;;;;22.70;49.70;;;;;;5094202;28;1069;-40
2022/03/22 07:21:46;;;;;;;;;;;22.70;49.50;;;;;;5094459;28;990;-41
2022/03/22 07:24:13;;;;;;;;;;;22.60;49.50;;;;;;5095554;28;912;-37
2022/03/22 07:26:41;;;;;;;;;;;22.70;49.60;;;;;;5093987;28;860;-41
2022/03/22 07:29:08;;;;;;;;;;;22.70;49.50;;;;;;5094916;28;953;-40
2022/03/22 07:31:37;;;;;;;;;;;22.60;49.70;;;;;;5094382;28;1973;-41
2022/03/22 07:34:05;;;;;;;;;;;22.60;49.70;;;;;;5094211;28;984;-41
2022/03/22 07:36:35;;;;;;;;;;;22.60;49.70;;;;;;5094294;28;992;-41
2022/03/22 07:39:02;;;;;;;;;;;22.60;49.70;;;;;;5093984;28;981;-41
2022/03/22 07:41:28;;;;;;;;;;;22.60;49.60;;;;;;5094759;28;1016;-41
2022/03/22 07:43:56;;;;;;;;;;;22.60;49.80;;;;;;5094645;28;1007;-41
2022/03/22 07:46:23;;;;;;;;;;;22.60;49.80;;;;;;5093795;28;883;-41
2022/03/22 07:48:50;;;;;;;;;;;22.60;49.80;;;;;;5093403;28;1039;-41
2022/03/22 07:54:03;;;;;;;;;;;22.60;49.60;;;;;;5093945;28;676;-41
2022/03/22 07:56:30;;;;;;;;;;;22.60;49.70;;;;;;5093662;28;968;-41
2022/03/22 07:58:57;;;;;;;;;;;22.60;49.70;;;;;;5093241;28;1004;-41
2022/03/22 08:01:26;;;;;;;;;;;22.60;49.70;;;;;;5094398;28;976;-41
2022/03/22 08:03:52;;;;;;;;;;;22.60;49.60;;;;;;5094792;28;949;-41
2022/03/22 08:06:19;;;;;;;;;;;22.60;49.70;;;;;;5095350;28;872;-41
2022/03/22 08:08:46;;;;;;;;;;;22.60;49.60;;;;;;5095151;28;980;-42
2022/03/22 08:11:14;;;;;;;;;;;22.60;49.60;;;;;;5093418;28;1913;-41
2022/03/22 08:13:41;;;;;;;;;;;22.60;49.60;;;;;;5094113;28;956;-41
2022/03/22 08:16:07;;;;;;;;;;;22.60;49.50;;;;;;5093870;28;1000;-42
2022/03/22 08:18:34;;;;;;;;;;;22.60;49.50;;;;;;5095188;28;964;-41
2022/03/22 08:21:01;;;;;;;;;;;22.60;49.60;;;;;;5094382;28;869;-41
2022/03/22 08:23:27;;;;;;;;;;;22.60;49.50;;;;;;5095307;28;988;-41
2022/03/22 08:25:54;;;;;;;;;;;22.60;49.50;;;;;;5095610;28;976;-42
2022/03/22 08:28:23;;;;;;;;;;;22.70;49.40;;;;;;5095246;28;981;-41
2022/03/22 08:30:50;;;;;;;;;;;22.70;49.50;;;;;;5094365;28;941;-42
2022/03/22 08:33:17;;;;;;;;;;;22.60;49.50;;;;;;5095000;28;1981;-41
2022/03/22 08:35:45;;;;;;;;;;;22.70;49.50;;;;;;5094870;28;1003;-40
2022/03/22 08:38:12;;;;;;;;;;;22.60;49.60;;;;;;5096848;28;1080;-40
2022/03/22 08:40:40;;;;;;;;;;;22.70;49.50;;;;;;5098131;28;884;-40
2022/03/22 08:43:07;;;;;;;;;;;22.70;49.60;;;;;;5098165;28;979;-42
2022/03/22 08:45:36;;;;;;;;;;;22.60;49.50;;;;;;5097578;28;927;-41
2022/03/22 08:48:09;;;;;;;;;;;22.60;49.50;;;;;;5098304;28;997;-41
2022/03/22 08:50:36;;;;;;;;;;;22.70;49.60;;;;;;5097901;28;1087;-41
2022/03/22 08:53:05;;;;;;;;;;;22.70;49.60;;;;;;5097629;28;1894;-41
2022/03/22 08:55:31;;;;;;;;;;;22.70;49.50;;;;;;5097805;28;941;-42
2022/03/22 08:58:04;;;;;;;;;;;22.70;49.40;;;;;;5097925;28;1094;-41
2022/03/22 09:00:32;;;;;;;;;;;22.70;49.40;;;;;;5097949;28;944;-41
2022/03/22 09:03:00;;;;;;;;;;;22.70;50.70;;;;;;5097083;28;1242;-42
2022/03/22 09:08:11;;;;;;;;;;;22.70;49.60;;;;;;5097242;28;1092;-41
2022/03/22 09:10:38;;;;;;;;;;;22.60;49.60;;;;;;5096830;28;992;-41
2022/03/22 09:13:05;;;;;;;;;;;22.70;49.60;;;;;;5096080;28;1988;-43
2022/03/22 09:15:32;;;;;;;;;;;22.70;49.70;;;;;;5095707;28;1000;-40
2022/03/22 09:18:01;;;;;;;;;;;22.60;49.60;;;;;;5097136;28;989;-40
2022/03/22 09:20:31;;;;;;;;;;;22.70;49.60;;;;;;5096729;28;1674;-44
2022/03/22 09:22:58;;;;;;;;;;;22.70;49.70;;;;;;5096387;28;1034;-43
2022/03/22 09:25:24;;;;;;;;;;;22.70;49.60;;;;;;5097361;28;1027;-43
2022/03/22 09:27:51;;;;;;;;;;;22.70;49.50;;;;;;5097315;28;924;-43
2022/03/22 09:30:18;;;;;;;;;;;22.70;49.50;;;;;;5097575;28;941;-39
2022/03/22 09:32:47;;;;;;;;;;;22.70;49.40;;;;;;5096953;28;1985;-40
2022/03/22 09:35:19;;;;;;;;;;;22.70;49.50;;;;;;5096819;28;935;-39
2022/03/22 09:37:47;;;;;;;;;;;22.70;49.50;;;;;;5097221;28;939;-41
2022/03/22 09:40:15;;;;;;;;;;;22.70;49.60;;;;;;5097324;28;929;-38
2022/03/22 09:42:43;;;;;;;;;;;22.70;49.60;;;;;;5097161;28;972;-39
2022/03/22 09:45:10;;;;;;;;;;;22.70;49.40;;;;;;5097528;28;940;-39
2022/03/22 09:47:37;;;;;;;;;;;22.70;49.40;;;;;;5096434;28;998;-39
2022/03/22 09:50:04;;;;;;;;;;;22.70;49.50;;;;;;5095709;28;1466;-41
2022/03/22 09:52:32;;;;;;;;;;;22.70;49.40;;;;;;5096403;28;1898;-39
2022/03/22 09:54:59;;;;;;;;;;;22.70;49.50;;;;;;5096546;28;971;-37
2022/03/22 09:57:27;;;;;;;;;;;22.70;49.40;;;;;;5097757;28;932;-39
2022/03/22 09:59:54;;;;;;;;;;;22.70;49.30;;;;;;5096966;28;1026;-41
2022/03/22 10:02:27;;;;;;;;;;;22.70;49.40;;;;;;5091238;28;1017;-42
2022/03/22 10:04:54;;;;;;;;;;;22.70;49.40;;;;;;5087946;28;834;-42
2022/03/22 10:07:21;;;;;;;;;;;22.70;49.40;;;;;;5097275;28;1081;-41
2022/03/22 10:09:53;;;;;;;;;;;22.70;49.30;;;;;;5096613;28;1144;-41
2022/03/22 10:12:26;;;;;;;;;;;22.70;49.20;;;;;;5097525;28;1878;-39
2022/03/22 10:14:53;;;;;;;;;;;22.70;49.40;;;;;;5090133;28;724;-42
2022/03/22 10:17:19;;;;;;;;;;;22.70;49.60;;;;;;5096535;28;1005;-41
2022/03/22 10:19:48;;;;;;;;;;;22.70;50.70;;;;;;5097648;28;944;-41
2022/03/22 10:22:15;;;;;;;;;;;22.70;49.50;;;;;;5097588;28;1011;-41
2022/03/22 10:24:45;;;;;;;;;;;22.70;49.30;;;;;;5095310;28;1027;-41
2022/03/22 10:27:24;;;;;;;;;;;22.70;49.40;;;;;;5095574;28;1013;-41
2022/03/22 10:29:51;;;;;;;;;;;22.70;49.40;;;;;;5095766;28;989;-39
2022/03/22 10:32:19;;;;;;;;;;;22.70;49.40;;;;;;5095272;28;1989;-41
2022/03/22 10:34:46;;;;;;;;;;;22.70;49.30;;;;;;5095696;28;1003;-41
2022/03/22 10:37:12;;;;;;;;;;;22.70;49.30;;;;;;5095408;28;948;-40
2022/03/22 10:39:42;;;;;;;;;;;22.70;49.20;;;;;;5095181;28;936;-42
2022/03/22 10:42:10;;;;;;;;;;;22.70;49.10;;;;;;5094203;28;967;-41
2022/03/22 10:44:38;;;;;;;;;;;22.70;49.20;;;;;;5094904;28;984;-40
2022/03/22 10:47:07;;;;;;;;;;;22.70;49.20;;;;;;5095199;28;1023;-41
2022/03/22 10:49:34;;;;;;;;;;;22.70;49.20;;;;;;5094481;28;1071;-41
2022/03/22 10:52:01;;;;;;;;;;;22.70;49.10;;;;;;5094748;28;905;-41
2022/03/22 10:54:27;;;;;;;;;;;22.70;49.20;;;;;;5094378;28;1010;-40
2022/03/22 10:56:55;;;;;;;;;;;22.80;49.20;;;;;;5095357;28;1021;-41
2022/03/22 10:59:23;;;;;;;;;;;22.70;49.20;;;;;;5095192;28;1020;-43
2022/03/22 11:01:54;;;;;;;;;;;22.70;49.30;;;;;;5094048;28;1004;-41
2022/03/22 11:04:20;;;;;;;;;;;22.70;49.20;;;;;;5094331;28;977;-41
2022/03/22 11:06:48;;;;;;;;;;;22.70;49.20;;;;;;5094457;28;940;-41
2022/03/22 11:09:15;;;;;;;;;;;22.80;49.30;;;;;;5094184;28;1804;-41
2022/03/22 11:11:43;;;;;;;;;;;22.70;49.30;;;;;;5094833;28;1143;-41
2022/03/22 11:14:12;;;;;;;;;;;22.70;49.30;;;;;;5094307;28;1981;-42
2022/03/22 11:16:40;;;;;;;;;;;22.80;49.30;;;;;;5094396;28;1003;-42
2022/03/22 11:19:09;;;;;;;;;;;22.80;49.20;;;;;;5093988;28;980;-42
2022/03/22 11:21:38;;;;;;;;;;;22.80;49.20;;;;;;5094129;28;1026;-41
2022/03/22 11:24:07;;;;;;;;;;;22.70;49.20;;;;;;5093444;28;940;-41
2022/03/22 11:26:38;;;;;;;;;;;22.70;49.30;;;;;;5094997;28;951;-41
2022/03/22 11:29:05;;;;;;;;;;;22.70;49.30;;;;;;5095001;28;980;-42
2022/03/22 11:31:32;;;;;;;;;;;22.80;49.30;;;;;;5093819;28;1040;-41
2022/03/22 11:34:11;;;;;;;;;;;22.80;49.20;;;;;;5093319;28;1905;-41
2022/03/22 11:36:40;;;;;;;;;;;22.80;49.30;;;;;;5094564;28;1000;-42
2022/03/22 11:39:08;;;;;;;;;;;22.80;49.40;;;;;;5094264;28;1128;-40
2022/03/22 11:44:20;;;;;;;;;;;22.80;49.30;;;;;;5092744;28;699;-41
2022/03/22 11:46:48;;;;;;;;;;;22.80;49.40;;;;;;5092697;28;956;-41
2022/03/22 11:49:16;;;;;;;;;;;22.80;49.30;;;;;;5093017;28;1828;-41
2022/03/22 11:51:51;;;;;;;;;;;22.80;49.10;;;;;;5092271;28;971;-41
2022/03/22 11:54:19;;;;;;;;;;;22.80;49.10;;;;;;5091388;28;1909;-42
2022/03/22 11:56:46;;;;;;;;;;;22.80;49.20;;;;;;5092977;28;1186;-42
2022/03/22 11:59:16;;;;;;;;;;;22.80;49.20;;;;;;5093306;28;948;-41
2022/03/22 12:01:42;;;;;;;;;;;22.80;49.20;;;;;;5091718;28;1038;-39
2022/03/22 12:04:16;;;;;;;;;;;22.80;49.20;;;;;;5092572;28;1014;-41
2022/03/22 12:06:43;;;;;;;;;;;22.80;49.20;;;;;;5091267;28;936;-41
2022/03/22 12:09:11;;;;;;;;;;;22.80;49.20;;;;;;5090644;28;1064;-41
2022/03/22 12:11:38;;;;;;;;;;;22.80;49.20;;;;;;5091086;28;992;-41
2022/03/22 12:14:05;;;;;;;;;;;22.80;49.20;;;;;;5095616;28;1906;-41
2022/03/22 12:16:32;;;;;;;;;;;22.80;49.10;;;;;;5095194;28;961;-39
2022/03/22 12:18:59;;;;;;;;;;;22.80;49.10;;;;;;5096840;28;971;-40
2022/03/22 12:21:26;;;;;;;;;;;22.80;49.10;;;;;;5094852;28;988;-40
2022/03/22 12:23:54;;;;;;;;;;;22.80;49.20;;;;;;5096167;28;977;-40
2022/03/22 12:26:26;;;;;;;;;;;22.80;49.00;;;;;;5095978;28;884;-40
2022/03/22 12:28:54;;;;;;;;;;;22.90;49.20;;;;;;5096282;28;882;-39
2022/03/22 12:31:22;;;;;;;;;;;22.90;49.10;;;;;;5097230;28;937;-40
2022/03/22 12:33:50;;;;;;;;;;;22.90;49.00;;;;;;5096706;28;1967;-42
2022/03/22 12:36:17;;;;;;;;;;;22.90;49.00;;;;;;5096141;28;979;-40
2022/03/22 12:38:44;;;;;;;;;;;22.90;49.00;;;;;;5097381;28;991;-40
2022/03/22 12:41:11;;;;;;;;;;;22.90;49.10;;;;;;5096832;28;1027;-40
2022/03/22 12:43:45;;;;;;;;;;;22.90;49.10;;;;;;5095797;28;984;-40
2022/03/22 12:46:12;;;;;;;;;;;22.90;49.00;;;;;;5096347;28;869;-41
2022/03/22 12:48:40;;;;;;;;;;;22.90;49.10;;;;;;5095887;28;932;-40
2022/03/22 12:51:08;;;;;;;;;;;22.90;49.00;;;;;;5095323;28;1687;-40
2022/03/22 12:53:35;;;;;;;;;;;22.90;49.10;;;;;;5095295;28;1906;-40
2022/03/22 12:56:02;;;;;;;;;;;22.90;49.10;;;;;;5095285;28;981;-40
2022/03/22 12:58:29;;;;;;;;;;;22.90;49.10;;;;;;5095757;28;865;-39
2022/03/22 13:00:58;;;;;;;;;;;22.90;49.10;;;;;;5095284;28;940;-40
2022/03/22 13:03:25;;;;;;;;;;;22.90;49.10;;;;;;5094525;28;1523;-40
2022/03/22 13:05:52;;;;;;;;;;;22.90;49.10;;;;;;5095069;28;979;-40
2022/03/22 13:08:19;;;;;;;;;;;22.90;49.20;;;;;;5095677;28;871;-40
2022/03/22 13:16:21;;;;;;;;;;;22.90;49.20;;;;;;5095159;28;910;-41
2022/03/22 13:18:48;;;;;;;;;;;22.90;49.20;;;;;;5095413;28;932;-39
2022/03/22 13:21:15;;;;;;;;;;;22.90;49.20;;;;;;5095574;28;888;-40
2022/03/22 13:23:42;;;;;;;;;;;22.90;49.20;;;;;;5094362;28;964;-41
2022/03/22 13:26:15;;;;;;;;;;;22.90;49.60;;;;;;5095744;28;985;-41
2022/03/22 13:28:42;;;;;;;;;;;22.90;49.20;;;;;;5096321;28;987;-40
2022/03/22 13:31:09;;;;;;;;;;;22.90;49.20;;;;;;5096716;28;956;-40
2022/03/22 13:33:38;;;;;;;;;;;22.90;49.20;;;;;;5097752;28;1977;-39
2022/03/22 13:36:05;;;;;;;;;;;22.90;49.30;;;;;;5095782;28;1093;-40
2022/03/22 13:38:33;;;;;;;;;;;22.90;49.20;;;;;;5095949;28;996;-41
2022/03/22 13:41:03;;;;;;;;;;;22.90;49.20;;;;;;5096768;28;932;-41
2022/03/22 13:43:30;;;;;;;;;;;22.90;49.10;;;;;;5096178;28;976;-40
2022/03/22 13:45:58;;;;;;;;;;;23.00;49.20;;;;;;5095358;28;1028;-40
2022/03/22 13:48:25;;;;;;;;;;;23.00;49.20;;;;;;5097093;28;948;-40
2022/03/22 13:50:54;;;;;;;;;;;23.00;49.10;;;;;;5097795;28;1125;-40
2022/03/22 13:53:22;;;;;;;;;;;23.00;49.10;;;;;;5096207;28;1985;-41
2022/03/22 13:55:50;;;;;;;;;;;23.00;49.20;;;;;;5095166;28;979;-40
2022/03/22 13:58:18;;;;;;;;;;;23.00;49.20;;;;;;5095293;28;951;-41
2022/03/22 14:00:46;;;;;;;;;;;23.00;49.20;;;;;;5095176;28;1046;-40
2022/03/22 14:03:14;;;;;;;;;;;23.00;49.20;;;;;;5095956;28;955;-39
2022/03/22 14:05:41;;;;;;;;;;;23.00;49.20;;;;;;5096130;28;978;-40
2022/03/22 14:08:10;;;;;;;;;;;23.00;49.20;;;;;;5093314;28;1047;-41
2022/03/22 14:10:37;;;;;;;;;;;23.00;49.10;;;;;;5095290;28;964;-39
2022/03/22 14:13:05;;;;;;;;;;;23.10;49.10;;;;;;5096127;28;1906;-40
2022/03/22 14:15:32;;;;;;;;;;;23.10;49.20;;;;;;5096259;28;1097;-40
2022/03/22 14:17:59;;;;;;;;;;;23.10;49.10;;;;;;5096489;28;1019;-40
2022/03/22 14:20:26;;;;;;;;;;;23.10;49.10;;;;;;5095202;28;1003;-41
2022/03/22 14:22:54;;;;;;;;;;;23.10;49.00;;;;;;5097043;28;1012;-40
2022/03/22 14:25:23;;;;;;;;;;;23.10;49.10;;;;;;5095289;28;992;-40
2022/03/22 14:27:51;;;;;;;;;;;23.10;49.00;;;;;;5097378;28;1024;-40
2022/03/22 14:30:19;;;;;;;;;;;23.10;48.90;;;;;;5097282;28;1011;-41
2022/03/22 14:32:47;;;;;;;;;;;23.20;49.00;;;;;;5070027;28;895;-41
2022/03/22 14:37:59;;;;;;;;;;;23.20;49.00;;;;;;5088869;28;1024;-40
2022/03/22 14:40:28;;;;;;;;;;;23.20;49.00;;;;;;5083166;28;976;-40
2022/03/22 14:42:57;;;;;;;;;;;23.20;48.80;;;;;;5083511;28;888;-41
2022/03/22 14:45:24;;;;;;;;;;;23.30;48.80;;;;;;5068500;28;857;-40
2022/03/22 14:47:51;;;;;;;;;;;23.30;48.70;;;;;;5096289;28;1029;-41
2022/03/22 14:50:19;;;;;;;;;;;23.30;48.70;;;;;;5094439;28;1011;-41
2022/03/22 14:55:31;;;;;;;;;;;23.40;48.70;;;;;;5093663;28;1926;-40
2022/03/22 16:00:13;;;;;;;;;;;23.90;48.20;;;;;;4991679;28;1628;-40
2022/03/22 16:02:40;;;;;;;;;;;23.90;48.20;;;;;;4993884;28;982;-41
2022/03/22 16:05:09;;;;;;;;;;;23.90;48.20;;;;;;4993569;28;936;-40
2022/03/22 16:07:35;;;;;;;;;;;23.90;48.20;;;;;;4991765;28;973;-39
2022/03/22 16:10:03;;;;;;;;;;;24.00;48.10;;;;;;4992479;28;966;-40
2022/03/22 16:12:30;;;;;;;;;;;24.00;48.10;;;;;;4992600;28;870;-40
2022/03/22 16:14:56;;;;;;;;;;;24.00;48.10;;;;;;4993312;28;1911;-41
2022/03/22 16:17:25;;;;;;;;;;;24.00;48.10;;;;;;4992873;28;1025;-41
2022/03/22 16:19:52;;;;;;;;;;;24.00;48.20;;;;;;4992986;28;942;-40
2022/03/22 16:22:21;;;;;;;;;;;24.10;48.20;;;;;;4992656;28;993;-41
2022/03/22 16:24:48;;;;;;;;;;;24.10;48.20;;;;;;4992448;28;943;-40
2022/03/22 16:27:15;;;;;;;;;;;24.10;48.30;;;;;;4990721;28;890;-42